Main page
METAR-TAF:

METAR-TAF

Airports :

Baghdad, Iraq

Baghdad International Airport

latitude: 33-15-45N, longitude: 44-14-04E, elevation: 35 m

Current weather observation

The report was made 21 minutes ago, at 05:00 UTC
Wind 9 kt from the Northeast
Temperature 18°C
Humidity 59%
Pressure 1017 hPa
Visibility 10 km or more
no clouds below 1500 m and no cumulonimbus

METAR: ORBI 290500Z 05009KT CAVOK 18/10 Q1017 NOSIG

Time: 08:21 (05:21 UTC)

Forecast

The report was made 7 hours and 21 minutes ago, at 22:00 UTC
Forecast valid from 29 at 00 UTC to 29 at 24 UTC
Wind 5 kt from the South/Southeast
Visibility: 8000 m
Becoming
from 29 at 06 UTC to 29 at 08 UTC
Wind 8 kt from the West/Northwest

TAF: ORBI 282200Z 2900/2924 15005KT 8000 NSC BECMG 2906/2908 30008KT

Weather observations and forecasts of more than 4000 airports (METAR and TAF reports).

The available stations are represented by yellow and red dots on the map.

Hover mouse over dot to see the name of the station.

Then click to see weather observations and forecasts.

To change the map : click on the green buttons with a black cross to zoom in, on the green button with a dash to zoom out, or on the green arrows for adjacent maps.


METAR-TAF: